Briefing drone pour Feytiat

Rechercher une autre localisation

Conditions de vol :


Nous sommes le : Lundi 08 mars 2021
Il est 21:09 UTC (22:09 LT)

Lever de soleil : 05:53 UTC (06:53 LT)
Coucher de soleil : 18:17 UTC (19:17 LT)

Météo

L'essentiel des conditions de vol

VIGILANCE MÉTÉO FRANCE - Haute-Vienne (87)
Pas de vigilances particulieres
METAR de LFBL
LFBL 082100Z AUTO 01008KT CAVOK 04/M02 Q1018 NOSIG

Date d'émission: 08/03/2021
Heure d'émission: 21:00 UTC
Vent: 010° pour 8 KT (15 km/h)
Visibilité horizontale: > 10 km
Plafond : Plafond et visibilité OK (CAVOK)
Température: 4 °C
Point de rosée: -2 °C
Humidité: 65%
Pression (QNH): 1018 hPa
Conditions: Pas de changement dans les 2 heures (NOSIG)
TAF de LFBL
LFBL 081700Z 0818/0918 01006KT CAVOK= LFBT 081700Z 0818/0918 27008KT 9999 BKN020 TEMPO 0818/0909 3000 -RA BKN015 BECMG 0821/0823 27010KT PROB30 TEMPO 0909/0918 4000 SHRA BKN025TCU

Conditions prévues :

Heure d'émission : Bulletin éffectué le 08 à 18:00 UTC
Prévision : Valide du 08 a 18:00 UTC au 09 a 18:00 UTC
Vent : 270° pour 8 KT (15 km/h)
Visibilité : > 10 km
Nuages : à 0ft (0 m)
à 0ft (0 m)
à 0ft (0 m)
Nuages morcelés à 2000ft (610 m)

Temporairement :

Prévision : Valide du 08 a 18:00 UTC au 09 a 09:00 UTC
Visibilité : 3000 m
Conditions : Pluie(faible)
Nuages : Nuages morcelés à 1500ft (457 m)

Devenant :

Prévision : Valide du 08 a 21:00 UTC au 08 a 23:00 UTC
Vent : 270° pour 10 KT (19 km/h)

Probabilité : 30 %
Temporairement :

Prévision : Valide du 09 a 09:00 UTC au 09 a 18:00 UTC
Visibilité : 4000 m
Conditions : Averses de Pluie
Nuages : Nuages morcelés à 2500ft (762 m)
WEBCAM POUR FEYTIAT

Réglementation

Voler en sécurité

CARTES AERONAUTIQUE 1/500.000
CARTES VAC (LFBL)
SUP AIP




Chargement des AIP...
NOTAM (FEYTIAT + Terrain à proximité / FIR )




Chargement des NOTAMS...
CONTACT PREFECTURE 87


Avertissement : Les données mises à disposition sont indicatives. Oxygène Drone ne pourra être tenu responsable de dégâts causés aux biens et aux personnes.